Time;durP1;ratioP1;P1;durP2;ratioP2;P2;SDS_P1;SDS_P2;PMS_P1;PMS_P2;Temp;Humidity;BMP_temperature;BMP_pressure;BME280_temperature;BME280_humidity;BME280_pressure;Samples;Min_cycle;Max_cycle;Signal;HPM_P1;HPM_P2
2024/01/26 00:00:06;;;;;;;1.50;1.40;;;;;;;1.79;77.11;100715.50;5070431;28;20201;-58
2024/01/26 00:02:34;;;;;;;1.43;1.33;;;;;;;1.79;77.54;100728.22;5071086;28;20650;-57
2024/01/26 00:05:03;;;;;;;2.73;1.70;;;;;;;1.81;78.06;100729.13;5069171;28;20679;-57
2024/01/26 00:07:32;;;;;;;2.10;1.43;;;;;;;1.73;78.39;100728.03;5070801;28;20209;-62
2024/01/26 00:10:00;;;;;;;1.90;1.70;;;;;;;1.74;77.67;100722.13;5068113;28;20209;-56
2024/01/26 00:12:30;;;;;;;2.20;1.37;;;;;;;1.73;77.12;100742.38;5065111;28;20215;-58
2024/01/26 00:14:58;;;;;;;2.23;1.60;;;;;;;1.68;77.15;100726.97;5070535;28;20201;-58
2024/01/26 00:17:26;;;;;;;1.57;1.47;;;;;;;1.69;77.92;100742.28;5070351;28;20197;-58
2024/01/26 00:19:55;;;;;;;1.60;1.50;;;;;;;1.71;78.13;100741.47;5069774;28;20209;-64
2024/01/26 00:22:23;;;;;;;1.43;1.30;;;;;;;1.65;77.49;100752.25;5063973;28;20208;-59
2024/01/26 00:24:52;;;;;;;2.33;1.60;;;;;;;1.65;78.30;100748.03;5072073;28;20197;-58
2024/01/26 00:27:20;;;;;;;1.40;1.30;;;;;;;1.69;77.63;100760.06;5063286;28;20254;-58
2024/01/26 00:29:48;;;;;;;1.63;1.40;;;;;;;1.70;78.41;100755.84;5065863;28;20202;-59
2024/01/26 00:32:16;;;;;;;1.47;1.30;;;;;;;1.69;77.20;100764.25;5068766;28;20210;-58
2024/01/26 00:34:44;;;;;;;1.77;1.13;;;;;;;1.72;78.09;100759.28;5072057;28;20201;-57
2024/01/26 00:37:12;;;;;;;2.33;1.40;;;;;;;1.73;77.50;100763.59;5069910;28;20209;-59
2024/01/26 00:39:40;;;;;;;2.30;1.60;;;;;;;1.71;77.63;100770.28;5065498;28;20197;-59
2024/01/26 00:42:09;;;;;;;1.60;1.40;;;;;;;1.71;78.45;100772.81;5070548;28;20293;-57
2024/01/26 00:44:37;;;;;;;1.70;1.33;;;;;;;1.68;78.16;100762.53;5074518;28;20694;-57
2024/01/26 00:47:06;;;;;;;1.60;1.40;;;;;;;1.60;78.11;100769.88;5074920;28;20209;-59
2024/01/26 00:49:34;;;;;;;1.57;1.33;;;;;;;1.56;78.03;100773.13;5074604;28;20278;-57
2024/01/26 00:52:15;;;;;;;1.93;1.40;;;;;;;1.61;79.02;100786.84;5069399;28;20216;-57
2024/01/26 00:54:43;;;;;;;1.40;1.30;;;;;;;1.60;78.36;100774.09;5074461;28;20189;-59
2024/01/26 00:57:12;;;;;;;1.77;1.37;;;;;;;1.57;78.21;100789.22;5056349;28;20205;-60
2024/01/26 00:59:41;;;;;;;1.97;1.33;;;;;;;1.61;77.78;100785.97;5073213;28;20301;-58
2024/01/26 01:02:09;;;;;;;2.17;1.80;;;;;;;1.60;78.67;100779.19;5074053;28;20208;-60
2024/01/26 01:04:37;;;;;;;2.17;1.60;;;;;;;1.60;78.22;100789.34;5071580;28;20306;-57
2024/01/26 01:07:05;;;;;;;1.30;1.20;;;;;;;1.60;77.67;100790.19;5074112;28;20200;-56
2024/01/26 01:09:34;;;;;;;3.27;1.70;;;;;;;1.60;78.39;100782.59;5072968;28;20668;-58
2024/01/26 01:12:02;;;;;;;1.83;1.60;;;;;;;1.61;78.62;100785.97;5070076;28;20240;-58
2024/01/26 01:14:32;;;;;;;1.50;1.40;;;;;;;1.60;78.04;100790.19;5070957;28;20201;-57
2024/01/26 01:16:59;;;;;;;1.53;1.40;;;;;;;1.57;77.97;100781.59;5071742;28;20209;-58
2024/01/26 01:19:27;;;;;;;1.90;1.50;;;;;;;1.54;77.70;100801.81;5072440;28;20201;-59
2024/01/26 01:21:56;;;;;;;2.27;1.67;;;;;;;1.56;78.27;100792.59;5069135;28;20248;-57
2024/01/26 01:24:24;;;;;;;3.80;1.90;;;;;;;1.59;77.71;100798.63;5073310;28;20209;-58
2024/01/26 01:26:52;;;;;;;1.80;1.70;;;;;;;1.57;77.91;100814.63;5073841;28;20299;-57
2024/01/26 01:29:20;;;;;;;1.70;1.60;;;;;;;1.53;77.90;100812.78;5070809;28;20204;-59
2024/01/26 01:31:49;;;;;;;1.90;1.30;;;;;;;1.51;78.86;100810.19;5059681;28;20611;-58
2024/01/26 01:34:17;;;;;;;2.43;1.57;;;;;;;1.48;78.08;100816.84;5062783;28;20205;-58
2024/01/26 01:36:45;;;;;;;1.93;1.80;;;;;;;1.45;79.19;100822.66;5074346;28;20206;-58
2024/01/26 01:39:13;;;;;;;1.37;1.23;;;;;;;1.49;78.51;100824.50;5073059;28;20201;-56
2024/01/26 01:41:46;;;;;;;1.80;1.57;;;;;;;1.44;78.24;100816.72;5073480;28;20251;-57
2024/01/26 01:44:14;;;;;;;2.00;1.70;;;;;;;1.42;79.13;100820.84;5073486;28;20690;-56
2024/01/26 01:46:42;;;;;;;2.63;1.70;;;;;;;1.44;79.68;100821.78;5073762;28;20573;-57
2024/01/26 01:49:11;;;;;;;2.20;1.63;;;;;;;1.45;79.31;100835.34;5065174;28;20201;-60
2024/01/26 01:51:44;;;;;;;1.30;1.20;;;;;;;1.42;78.32;100833.53;5065790;28;20205;-57
2024/01/26 01:54:12;;;;;;;1.37;1.20;;;;;;;1.41;78.00;100824.22;5067169;28;20686;-56
2024/01/26 01:56:42;;;;;;;2.53;1.07;;;;;;;1.42;78.10;100838.63;5072714;28;20226;-57
2024/01/26 01:59:10;;;;;;;1.53;1.00;;;;;;;1.44;77.60;100839.56;5073105;28;20629;-59
2024/01/26 02:01:38;;;;;;;1.43;1.10;;;;;;;1.42;78.21;100845.38;5072005;28;20293;-57
2024/01/26 02:04:06;;;;;;;1.17;1.07;;;;;;;1.42;78.17;100841.16;5072331;28;20309;-61
2024/01/26 02:06:35;;;;;;;1.30;1.20;;;;;;;1.46;78.58;100852.31;5070376;28;20563;-58
2024/01/26 02:09:04;;;;;;;2.33;1.47;;;;;;;1.48;77.59;100839.69;5065376;28;20220;-57
2024/01/26 02:11:32;;;;;;;2.03;1.10;;;;;;;1.49;77.06;100847.34;5067124;28;20290;-57
2024/01/26 02:14:00;;;;;;;1.33;1.20;;;;;;;1.49;77.48;100843.94;5073585;28;20575;-57
2024/01/26 02:16:28;;;;;;;1.13;0.93;;;;;;;1.47;77.42;100837.94;5072997;28;20902;-59
2024/01/26 02:18:55;;;;;;;1.37;1.10;;;;;;;1.46;77.85;100839.59;5071994;28;20556;-57
2024/01/26 02:21:23;;;;;;;1.97;1.60;;;;;;;1.45;77.64;100838.75;5072655;28;20239;-57
2024/01/26 02:23:53;;;;;;;2.10;1.30;;;;;;;1.49;77.72;100841.41;5066813;28;20700;-58
2024/01/26 02:26:20;;;;;;;2.00;1.23;;;;;;;1.48;78.24;100844.75;5067509;28;20625;-57
2024/01/26 02:28:48;;;;;;;1.13;1.00;;;;;;;1.51;78.16;100847.41;5067855;28;20288;-56
2024/01/26 02:31:16;;;;;;;1.33;1.23;;;;;;;1.50;77.66;100845.66;5072286;28;20193;-56
2024/01/26 02:33:44;;;;;;;1.70;1.40;;;;;;;1.51;78.12;100844.84;5072403;28;20209;-57
2024/01/26 02:36:13;;;;;;;2.90;1.10;;;;;;;1.52;77.61;100829.69;5072194;28;20208;-58
2024/01/26 02:38:40;;;;;;;1.03;1.00;;;;;;;1.51;76.31;100860.09;5062085;28;20202;-57
2024/01/26 02:41:10;;;;;;;1.80;1.00;;;;;;;1.48;76.68;100858.31;5070917;28;20728;-59
2024/01/26 02:43:37;;;;;;;1.50;1.20;;;;;;;1.47;77.11;100861.66;5065549;28;20197;-58
2024/01/26 02:46:09;;;;;;;1.90;1.30;;;;;;;1.43;77.68;100863.19;5069821;28;20216;-59
2024/01/26 02:48:37;;;;;;;1.20;1.10;;;;;;;1.43;77.67;100865.75;5072339;28;20205;-59
2024/01/26 02:51:06;;;;;;;2.13;1.40;;;;;;;1.44;77.54;100864.09;5063516;28;20699;-57
2024/01/26 02:53:34;;;;;;;1.40;1.30;;;;;;;1.40;77.36;100870.72;5070190;28;20193;-57
2024/01/26 02:56:02;;;;;;;1.40;1.30;;;;;;;1.39;78.00;100863.91;5072229;28;20271;-57
2024/01/26 02:58:31;;;;;;;1.40;1.30;;;;;;;1.42;78.08;100875.84;5071832;28;20237;-57
2024/01/26 03:00:59;;;;;;;1.17;1.10;;;;;;;1.43;77.81;100880.97;5066492;28;20675;-58
2024/01/26 03:03:27;;;;;;;2.13;1.53;;;;;;;1.45;77.72;100888.66;5064115;28;20201;-57
2024/01/26 03:05:55;;;;;;;2.17;1.40;;;;;;;1.43;78.75;100882.66;5070416;28;20221;-56
2024/01/26 03:08:23;;;;;;;1.80;1.70;;;;;;;1.45;78.46;100893.75;5061307;28;20197;-57
2024/01/26 03:10:51;;;;;;;1.63;1.50;;;;;;;1.47;78.69;100893.78;5071333;28;20193;-58
2024/01/26 03:13:19;;;;;;;2.03;1.43;;;;;;;1.52;78.37;100889.78;5070878;28;20227;-59
2024/01/26 03:15:50;;;;;;;2.57;1.60;;;;;;;1.54;78.18;100883.06;5071869;28;20534;-57
2024/01/26 03:18:18;;;;;;;3.20;1.73;;;;;;;1.56;79.04;100895.03;5067619;28;20683;-63
2024/01/26 03:20:46;;;;;;;2.67;1.70;;;;;;;1.55;78.45;100887.38;5061473;28;20209;-58
2024/01/26 03:23:14;;;;;;;1.60;1.50;;;;;;;1.54;78.78;100895.75;5068224;28;20212;-56
2024/01/26 03:25:42;;;;;;;1.93;1.70;;;;;;;1.54;78.92;100895.75;5065478;28;20213;-59
2024/01/26 03:28:11;;;;;;;2.03;1.83;;;;;;;1.53;78.75;100894.03;5066829;28;20686;-60
2024/01/26 03:30:40;;;;;;;1.30;1.20;;;;;;;1.51;78.39;100900.72;5068964;28;20224;-59
2024/01/26 03:33:09;;;;;;;2.10;1.60;;;;;;;1.48;78.46;100898.09;5068810;28;20288;-57
2024/01/26 03:35:37;;;;;;;1.73;1.60;;;;;;;1.50;78.79;100906.63;5068459;28;20201;-57
2024/01/26 03:38:06;;;;;;;1.87;1.67;;;;;;;1.51;79.17;100900.72;5067853;28;20644;-59
2024/01/26 03:40:33;;;;;;;1.70;1.60;;;;;;;1.51;78.92;100905.81;5063682;28;20205;-58
2024/01/26 03:43:01;;;;;;;2.07;1.57;;;;;;;1.47;78.07;100907.34;5070784;28;20224;-59
2024/01/26 03:45:29;;;;;;;2.10;1.90;;;;;;;1.44;78.32;100899.66;5070711;28;20229;-58
2024/01/26 03:47:57;;;;;;;2.13;1.93;;;;;;;1.43;79.16;100916.53;5062116;28;20264;-58
2024/01/26 03:50:27;;;;;;;2.13;1.90;;;;;;;1.43;79.34;100908.03;5071258;28;20306;-57
2024/01/26 03:52:55;;;;;;;4.23;2.07;;;;;;;1.44;78.99;100905.59;5061509;28;20631;-58
2024/01/26 03:55:22;;;;;;;1.93;1.83;;;;;;;1.43;79.14;100913.97;5071339;28;20431;-58
2024/01/26 03:57:50;;;;;;;1.63;1.53;;;;;;;1.38;79.19;100915.50;5069859;28;20232;-57
2024/01/26 04:00:19;;;;;;;1.70;1.60;;;;;;;1.34;78.92;100913.66;5065573;28;20259;-58
2024/01/26 04:02:47;;;;;;;1.90;1.67;;;;;;;1.37;78.68;100923.91;5070408;28;20205;-57
2024/01/26 04:05:15;;;;;;;1.93;1.70;;;;;;;1.37;79.32;100934.06;5063807;28;20270;-59
2024/01/26 04:07:44;;;;;;;1.80;1.70;;;;;;;1.39;78.69;100932.44;5065269;28;20304;-58
2024/01/26 04:10:12;;;;;;;1.93;1.70;;;;;;;1.39;79.32;100929.06;5066919;28;20671;-57
2024/01/26 04:12:40;;;;;;;2.60;1.70;;;;;;;1.40;78.73;100939.28;5069764;28;20573;-58
2024/01/26 04:15:08;;;;;;;1.47;1.37;;;;;;;1.38;78.96;100933.25;5070618;28;20553;-65
2024/01/26 04:17:36;;;;;;;1.63;1.53;;;;;;;1.39;77.97;100937.53;5066821;28;20233;-56
2024/01/26 04:20:06;;;;;;;1.97;1.60;;;;;;;1.32;77.94;100932.16;5063090;28;20209;-60
2024/01/26 04:22:33;;;;;;;1.63;1.30;;;;;;;1.26;77.34;100937.88;5068789;28;20694;-60
2024/01/26 04:25:03;;;;;;;1.30;1.20;;;;;;;1.25;77.61;100953.88;5065454;28;20992;-57
2024/01/26 04:27:31;;;;;;;1.40;1.30;;;;;;;1.25;78.17;100948.78;5070101;28;20729;-58
2024/01/26 04:29:59;;;;;;;1.40;1.27;;;;;;;1.30;77.67;100966.78;5069844;28;20201;-58
2024/01/26 04:32:27;;;;;;;1.30;1.20;;;;;;;1.30;77.14;100951.53;5070165;28;20325;-59
2024/01/26 04:34:55;;;;;;;1.63;1.30;;;;;;;1.29;78.29;100953.22;5070066;28;20291;-56
2024/01/26 04:37:23;;;;;;;1.30;1.20;;;;;;;1.30;77.89;100952.41;5069123;28;20205;-57
2024/01/26 04:39:51;;;;;;;1.30;1.20;;;;;;;1.30;77.16;100957.50;5062777;28;20233;-59
2024/01/26 04:42:21;;;;;;;1.10;1.00;;;;;;;1.31;77.61;100954.13;5070356;28;20225;-58
2024/01/26 04:44:51;;;;;;;1.13;1.10;;;;;;;1.36;77.96;100952.66;5058972;28;20296;-57
2024/01/26 04:47:19;;;;;;;1.50;1.40;;;;;;;1.39;78.44;100957.84;5064526;28;20287;-57
2024/01/26 04:49:47;;;;;;;1.40;1.30;;;;;;;1.42;78.19;100962.19;5070247;28;20232;-57
2024/01/26 04:52:15;;;;;;;1.37;1.27;;;;;;;1.44;77.43;100960.59;5070537;28;20205;-57
2024/01/26 04:54:43;;;;;;;1.37;1.27;;;;;;;1.42;77.57;100960.50;5072664;28;20215;-57
2024/01/26 04:57:11;;;;;;;1.50;1.40;;;;;;;1.41;77.30;100961.31;5069569;28;20209;-58
2024/01/26 04:59:40;;;;;;;1.30;1.20;;;;;;;1.41;77.85;100963.00;5068234;28;20202;-58
2024/01/26 05:02:08;;;;;;;1.50;1.40;;;;;;;1.39;76.87;100969.69;5070399;28;20591;-59
2024/01/26 05:04:36;;;;;;;1.40;1.30;;;;;;;1.36;77.04;100967.91;5068320;28;20809;-58
2024/01/26 05:07:04;;;;;;;1.60;1.50;;;;;;;1.34;76.73;100973.72;5070561;28;20261;-58
2024/01/26 05:09:32;;;;;;;1.17;1.07;;;;;;;1.33;77.39;100974.53;5073352;28;20205;-58
2024/01/26 05:12:00;;;;;;;0.97;0.90;;;;;;;1.32;77.06;100980.38;5064293;28;20285;-57
2024/01/26 05:14:28;;;;;;;1.77;1.10;;;;;;;1.31;77.48;100979.53;5062664;28;20209;-57
2024/01/26 05:16:57;;;;;;;1.30;1.20;;;;;;;1.32;76.81;100986.31;5069593;28;20262;-57
2024/01/26 05:19:25;;;;;;;1.80;1.60;;;;;;;1.33;76.39;100985.53;5072782;28;20220;-57
2024/01/26 05:21:53;;;;;;;1.20;1.20;;;;;;;1.26;76.83;100981.03;5071428;28;20201;-58
2024/01/26 05:24:21;;;;;;;1.03;1.03;;;;;;;1.29;77.00;100991.31;5073491;28;20782;-57
2024/01/26 05:26:49;;;;;;;1.43;1.20;;;;;;;1.29;76.67;100991.31;5073898;28;20672;-56
2024/01/26 05:29:17;;;;;;;1.10;0.80;;;;;;;1.33;77.06;100987.22;5072802;28;20710;-56
2024/01/26 05:31:45;;;;;;;1.50;1.40;;;;;;;1.35;76.90;100994.06;5070207;28;20197;-57
2024/01/26 05:34:15;;;;;;;1.27;1.00;;;;;;;1.34;75.92;100992.34;5070676;28;20225;-57
2024/01/26 05:36:43;;;;;;;0.97;0.90;;;;;;;1.37;76.39;100997.56;5062753;28;20193;-60
2024/01/26 05:39:12;;;;;;;1.17;1.00;;;;;;;1.40;76.18;100995.16;5069709;28;20205;-58
2024/01/26 05:41:40;;;;;;;1.70;1.17;;;;;;;1.35;76.20;100988.13;5071855;28;20278;-59
2024/01/26 05:44:08;;;;;;;1.53;1.40;;;;;;;1.34;76.71;100989.81;5072822;28;20275;-57
2024/01/26 05:46:36;;;;;;;1.30;1.20;;;;;;;1.31;75.66;100994.75;5073524;28;20587;-57
2024/01/26 05:49:04;;;;;;;1.03;1.03;;;;;;;1.31;76.19;100998.97;5070932;28;20212;-58
2024/01/26 05:51:37;;;;;;;1.50;1.40;;;;;;;1.30;75.80;100994.72;5070412;28;20710;-59
2024/01/26 05:54:05;;;;;;;1.53;1.27;;;;;;;1.32;76.35;101005.78;5069956;28;20201;-58
2024/01/26 05:56:33;;;;;;;2.03;1.13;;;;;;;1.30;75.90;101015.88;5072714;28;20724;-59
2024/01/26 05:59:01;;;;;;;2.10;1.50;;;;;;;1.32;76.72;101008.31;5065935;28;20263;-58
2024/01/26 06:01:29;;;;;;;1.40;1.07;;;;;;;1.32;76.41;101011.72;5070182;28;20268;-58
2024/01/26 06:03:57;;;;;;;1.50;1.40;;;;;;;1.28;75.82;101014.94;5059136;28;20216;-56
2024/01/26 06:06:25;;;;;;;2.47;2.00;;;;;;;1.24;75.73;101013.06;5078784;28;20730;-55
2024/01/26 06:08:54;;;;;;;1.77;1.40;;;;;;;1.21;75.69;101007.88;5072919;28;20193;-58
2024/01/26 06:11:23;;;;;;;1.33;1.10;;;;;;;1.21;75.25;101007.88;5072598;28;20645;-57
2024/01/26 06:13:51;;;;;;;1.53;1.17;;;;;;;1.22;75.20;101008.75;5072509;28;20205;-55
2024/01/26 06:16:21;;;;;;;1.00;1.00;;;;;;;1.22;75.52;101014.69;5062506;28;20648;-56
2024/01/26 06:18:49;;;;;;;1.30;1.00;;;;;;;1.20;74.92;101012.09;5067795;28;20296;-57
2024/01/26 06:21:18;;;;;;;1.33;1.20;;;;;;;1.18;73.74;101005.22;5067329;28;20267;-57
2024/01/26 06:23:46;;;;;;;1.70;1.20;;;;;;;1.16;73.63;101010.22;5071837;28;20728;-58
2024/01/26 06:26:16;;;;;;;1.07;0.87;;;;;;;1.16;73.37;101016.97;5070532;28;20616;-62
2024/01/26 06:28:44;;;;;;;0.80;0.80;;;;;;;1.15;73.23;101015.25;5058845;28;20202;-56
2024/01/26 06:31:11;;;;;;;2.63;1.13;;;;;;;1.16;72.90;101024.59;5066347;28;20649;-55
2024/01/26 06:33:39;;;;;;;1.87;1.07;;;;;;;1.16;73.39;101029.66;5054668;28;20202;-58
2024/01/26 06:36:08;;;;;;;1.70;1.27;;;;;;;1.18;73.98;101023.00;5060573;28;20290;-57
2024/01/26 06:38:40;;;;;;;1.57;1.37;;;;;;;1.23;73.02;101030.78;5066319;28;20204;-57
2024/01/26 06:41:08;;;;;;;1.90;1.30;;;;;;;1.28;73.53;101039.47;5071440;28;20217;-57
2024/01/26 06:43:37;;;;;;;1.27;0.80;;;;;;;1.29;73.40;101028.50;5068305;28;20232;-55
2024/01/26 06:46:05;;;;;;;2.93;1.53;;;;;;;1.26;73.34;101026.72;5068365;28;20681;-57
2024/01/26 06:48:33;;;;;;;1.43;1.00;;;;;;;1.20;72.66;101021.38;5072067;28;20212;-57
2024/01/26 06:51:02;;;;;;;5.13;1.27;;;;;;;1.14;73.12;101019.47;5067106;28;20756;-57
2024/01/26 06:53:30;;;;;;;1.10;1.00;;;;;;;1.14;73.09;101027.06;5071730;28;20208;-56
2024/01/26 06:55:58;;;;;;;2.83;0.90;;;;;;;1.15;73.12;101017.78;5067926;28;20648;-58
2024/01/26 06:58:25;;;;;;;1.83;1.00;;;;;;;1.13;73.01;101019.38;5071038;28;20208;-56
2024/01/26 07:00:55;;;;;;;1.20;1.10;;;;;;;1.15;72.66;101018.66;5064674;28;20205;-60
2024/01/26 07:03:23;;;;;;;3.43;0.93;;;;;;;1.20;72.72;101019.69;5055685;28;20312;-58
2024/01/26 07:05:51;;;;;;;1.20;1.10;;;;;;;1.24;72.98;101023.22;5068897;28;20571;-57
2024/01/26 07:08:19;;;;;;;2.87;1.30;;;;;;;1.33;72.63;101023.63;5071458;28;20223;-58
2024/01/26 07:10:47;;;;;;;1.63;1.20;;;;;;;1.38;72.49;101022.13;5065278;28;20202;-58
2024/01/26 07:13:15;;;;;;;3.47;2.07;;;;;;;1.42;71.95;101033.28;5068198;28;20213;-59
2024/01/26 07:15:43;;;;;;;1.37;1.07;;;;;;;1.45;72.15;101033.41;5071544;28;20205;-58
2024/01/26 07:18:12;;;;;;;0.80;0.80;;;;;;;1.49;72.99;101034.41;5071942;28;20699;-56
2024/01/26 07:20:40;;;;;;;2.17;1.00;;;;;;;1.56;72.62;101042.34;5066029;28;20625;-59
2024/01/26 07:23:08;;;;;;;1.93;1.63;;;;;;;1.61;72.38;101045.06;5058540;28;20209;-58
2024/01/26 07:25:36;;;;;;;2.10;1.37;;;;;;;1.62;72.27;101046.78;5069255;28;20229;-59
2024/01/26 07:28:06;;;;;;;1.10;1.03;;;;;;;1.61;72.27;101048.47;5051879;28;20564;-59
2024/01/26 07:30:34;;;;;;;1.30;0.90;;;;;;;1.61;72.11;101037.44;5069095;28;20201;-56
2024/01/26 07:33:02;;;;;;;1.10;1.00;;;;;;;1.63;72.64;101039.25;5067453;28;20194;-56
2024/01/26 07:35:31;;;;;;;2.10;1.30;;;;;;;1.67;72.70;101058.03;5066397;28;20205;-57
2024/01/26 07:37:59;;;;;;;1.40;1.10;;;;;;;1.66;72.37;101053.75;5056729;28;20208;-54
2024/01/26 07:40:27;;;;;;;1.33;1.20;;;;;;;1.66;72.36;101054.63;5065977;28;20670;-55
2024/01/26 07:42:55;;;;;;;2.53;1.03;;;;;;;1.67;72.06;101060.56;5070731;28;20207;-57
2024/01/26 07:45:23;;;;;;;1.67;1.37;;;;;;;1.67;72.83;101063.97;5069065;28;20731;-59
2024/01/26 07:47:52;;;;;;;2.60;1.40;;;;;;;1.72;73.70;101073.44;5059606;28;20240;-62
2024/01/26 07:50:20;;;;;;;1.27;1.10;;;;;;;1.68;73.63;101073.31;5063451;28;20814;-56
2024/01/26 07:52:49;;;;;;;1.73;1.37;;;;;;;1.72;73.62;101079.38;5068978;28;20357;-59
2024/01/26 07:55:17;;;;;;;1.93;1.40;;;;;;;1.73;73.79;101076.06;5066173;28;20208;-57
2024/01/26 07:57:45;;;;;;;1.50;1.40;;;;;;;1.77;73.22;101088.09;5070147;28;20202;-56
2024/01/26 08:00:14;;;;;;;2.87;1.43;;;;;;;1.78;73.47;101082.19;5065868;28;20233;-56
2024/01/26 08:02:42;;;;;;;2.07;1.63;;;;;;;1.82;73.65;101086.59;5061254;28;20214;-59
2024/01/26 08:05:11;;;;;;;4.57;2.63;;;;;;;1.84;73.72;101085.00;5066950;28;20626;-57
2024/01/26 08:07:42;;;;;;;3.23;1.80;;;;;;;1.84;73.23;101085.00;5064590;28;20229;-57
2024/01/26 08:10:12;;;;;;;3.10;1.83;;;;;;;1.87;72.99;101087.63;5069888;28;20304;-59
2024/01/26 08:12:46;;;;;;;2.07;1.90;;;;;;;1.91;72.93;101086.06;5062699;28;20262;-56
2024/01/26 08:15:14;;;;;;;2.40;2.00;;;;;;;1.95;73.20;101082.84;5069445;28;20547;-57
2024/01/26 08:17:43;;;;;;;2.27;1.83;;;;;;;1.97;72.14;101085.47;5068705;28;20529;-58
2024/01/26 08:20:12;;;;;;;2.20;2.00;;;;;;;1.98;71.79;101087.19;5064620;28;20198;-58
2024/01/26 08:22:42;;;;;;;2.23;1.90;;;;;;;1.99;72.64;101091.47;5069338;28;20197;-59
2024/01/26 08:25:12;;;;;;;2.67;2.03;;;;;;;2.00;72.02;101090.69;5071328;28;20246;-56
2024/01/26 08:27:41;;;;;;;2.83;1.90;;;;;;;2.00;71.59;101081.38;5063947;28;20265;-59
2024/01/26 08:30:09;;;;;;;2.57;2.07;;;;;;;2.01;72.25;101072.94;5069411;28;20277;-56
2024/01/26 08:32:38;;;;;;;3.27;2.60;;;;;;;2.04;71.18;101073.06;5070853;28;20574;-55
2024/01/26 08:35:09;;;;;;;3.97;2.30;;;;;;;2.04;72.15;101074.75;5070610;28;20259;-56
2024/01/26 08:37:38;;;;;;;2.83;2.20;;;;;;;2.09;71.28;101065.59;5056278;28;20652;-58
2024/01/26 08:40:09;;;;;;;3.37;2.20;;;;;;;2.09;71.08;101057.97;5067307;28;20211;-57
2024/01/26 08:42:39;;;;;;;3.60;2.43;;;;;;;2.11;71.49;101059.78;5069191;28;20667;-55
2024/01/26 08:45:08;;;;;;;2.67;2.13;;;;;;;2.12;70.49;101065.72;5073460;28;20656;-56
2024/01/26 08:47:36;;;;;;;4.60;2.27;;;;;;;2.13;71.43;101063.22;5071982;28;20205;-57
2024/01/26 08:50:05;;;;;;;3.47;2.77;;;;;;;2.20;70.86;101069.44;5066054;28;20634;-55
2024/01/26 08:52:33;;;;;;;2.67;2.43;;;;;;;2.24;71.25;101063.66;5075889;28;20259;-54
2024/01/26 08:55:01;;;;;;;2.93;2.50;;;;;;;2.28;70.85;101062.97;5069870;28;20656;-56
2024/01/26 08:57:29;;;;;;;3.47;2.57;;;;;;;2.31;70.32;101074.94;5073960;28;20225;-54
2024/01/26 08:59:59;;;;;;;2.63;2.40;;;;;;;2.31;70.73;101060.53;5070463;28;20194;-54
2024/01/26 09:02:28;;;;;;;6.67;4.50;;;;;;;2.39;70.80;101063.38;5073508;28;20274;-56
2024/01/26 09:04:56;;;;;;;3.47;2.73;;;;;;;2.38;69.84;101065.03;5071976;28;20255;-55
2024/01/26 09:07:24;;;;;;;3.40;2.83;;;;;;;2.38;69.90;101065.03;5059415;28;20218;-56
2024/01/26 09:09:53;;;;;;;3.83;2.37;;;;;;;2.39;70.42;101059.19;5065687;28;20658;-58
2024/01/26 09:12:21;;;;;;;3.50;2.63;;;;;;;2.39;69.98;101055.75;5075080;28;20220;-58
2024/01/26 09:14:49;;;;;;;2.40;2.20;;;;;;;2.39;70.43;101061.72;5067540;28;20612;-54
2024/01/26 09:17:19;;;;;;;2.97;2.67;;;;;;;2.41;69.80;101059.22;5071227;28;20276;-56
2024/01/26 09:19:46;;;;;;;3.50;2.93;;;;;;;2.41;69.58;101067.72;5067512;28;20194;-54
2024/01/26 09:22:15;;;;;;;4.57;2.37;;;;;;;2.37;70.17;101060.78;5064295;28;20201;-55
2024/01/26 09:24:42;;;;;;;3.87;2.37;;;;;;;2.39;69.86;101065.91;5073719;28;20623;-55
2024/01/26 09:27:10;;;;;;;4.67;2.47;;;;;;;2.35;70.43;101062.38;5071062;28;20258;-56
2024/01/26 09:29:38;;;;;;;3.40;2.33;;;;;;;2.39;70.40;101054.09;5063640;28;20194;-57
2024/01/26 09:32:07;;;;;;;3.03;2.67;;;;;;;2.42;70.22;101059.25;5068942;28;20242;-57
2024/01/26 09:34:36;;;;;;;4.27;3.17;;;;;;;2.41;69.93;101052.44;5070856;28;20197;-57
2024/01/26 09:37:04;;;;;;;3.97;2.87;;;;;;;2.35;70.77;101039.50;5072417;28;20205;-57
2024/01/26 09:39:32;;;;;;;2.87;2.67;;;;;;;2.44;70.78;101038.13;5065105;28;20233;-57
2024/01/26 09:42:00;;;;;;;3.70;2.90;;;;;;;2.51;70.56;101038.41;5068789;28;20667;-56
2024/01/26 09:44:28;;;;;;;2.97;2.53;;;;;;;2.57;70.21;101030.97;5071247;28;20292;-58
2024/01/26 09:46:58;;;;;;;2.43;2.23;;;;;;;2.57;69.62;101041.16;5069540;28;20228;-58
2024/01/26 09:49:29;;;;;;;2.20;2.10;;;;;;;2.60;69.94;101045.50;5071808;28;20586;-58
2024/01/26 09:51:59;;;;;;;2.37;2.10;;;;;;;2.59;69.69;101036.16;5072845;28;20205;-55
2024/01/26 09:54:28;;;;;;;3.03;2.57;;;;;;;2.55;69.34;101036.84;5069605;28;20239;-58
2024/01/26 09:56:58;;;;;;;3.40;2.97;;;;;;;2.58;69.13;101026.78;5074628;28;20208;-56
2024/01/26 09:59:26;;;;;;;2.40;2.20;;;;;;;2.64;68.19;101016.81;5061038;28;20264;-57
2024/01/26 10:01:54;;;;;;;2.87;2.07;;;;;;;2.66;68.55;101020.28;5068193;28;20201;-59
2024/01/26 10:04:23;;;;;;;2.60;2.27;;;;;;;2.64;68.58;101016.81;5066035;28;20198;-56
2024/01/26 10:06:51;;;;;;;2.10;1.90;;;;;;;2.62;67.92;101013.38;5072138;28;20216;-58
2024/01/26 10:09:20;;;;;;;1.60;1.50;;;;;;;2.57;66.92;101007.22;5067124;28;20239;-58
2024/01/26 10:11:48;;;;;;;2.10;1.90;;;;;;;2.52;66.80;101014.69;5065861;28;20201;-63
2024/01/26 10:14:23;;;;;;;1.43;1.33;;;;;;;2.46;66.55;101005.97;5073088;28;20209;-55
2024/01/26 10:16:55;;;;;;;2.60;1.60;;;;;;;2.50;66.08;101010.34;5069160;28;20198;-63
2024/01/26 10:19:24;;;;;;;2.07;1.70;;;;;;;2.54;66.00;101007.09;5067956;28;20198;-56
2024/01/26 10:21:52;;;;;;;1.70;1.60;;;;;;;2.64;66.01;100993.91;5063374;28;20272;-56
2024/01/26 10:24:24;;;;;;;3.40;1.93;;;;;;;2.69;65.22;100994.06;5064311;28;20645;-57
2024/01/26 10:26:52;;;;;;;3.10;1.53;;;;;;;2.74;65.04;100980.72;5072722;28;20550;-56
2024/01/26 10:29:22;;;;;;;2.90;1.50;;;;;;;2.83;64.20;100978.47;5072122;28;20209;-56
2024/01/26 10:31:51;;;;;;;1.60;1.50;;;;;;;2.85;63.89;100976.84;5062329;28;20252;-57
2024/01/26 10:34:21;;;;;;;2.30;1.60;;;;;;;2.87;64.63;100969.25;5072502;28;20676;-57
2024/01/26 10:36:50;;;;;;;1.60;1.50;;;;;;;2.89;64.31;100963.44;5069837;28;20208;-56
2024/01/26 10:39:24;;;;;;;1.80;1.70;;;;;;;2.98;64.31;100974.72;5066861;28;20601;-55
2024/01/26 10:41:53;;;;;;;4.30;2.60;;;;;;;3.04;63.59;100969.84;5064234;28;20640;-57
2024/01/26 10:44:22;;;;;;;1.90;1.40;;;;;;;3.02;63.67;100974.00;5071611;28;20262;-59
2024/01/26 10:46:51;;;;;;;2.23;1.57;;;;;;;2.98;63.64;100962.00;5072855;28;20667;-58
2024/01/26 10:49:21;;;;;;;1.40;1.30;;;;;;;3.00;64.03;100955.28;5072411;28;20213;-57
2024/01/26 10:51:52;;;;;;;2.20;1.60;;;;;;;3.00;63.77;100953.59;5071403;28;20201;-56
2024/01/26 10:54:24;;;;;;;1.93;1.80;;;;;;;3.01;64.22;100952.78;5066084;28;20289;-57
2024/01/26 10:56:53;;;;;;;3.33;1.87;;;;;;;2.98;64.58;100950.13;5066980;28;20291;-55
2024/01/26 10:59:23;;;;;;;2.37;2.10;;;;;;;2.93;64.23;100948.25;5059227;28;20201;-55
2024/01/26 11:01:52;;;;;;;2.27;1.80;;;;;;;2.87;65.31;100944.72;5052462;28;20285;-59
2024/01/26 11:04:20;;;;;;;1.87;1.70;;;;;;;2.85;65.26;100941.22;5061977;28;20251;-56
2024/01/26 11:06:48;;;;;;;2.07;1.73;;;;;;;2.83;64.86;100931.81;5067598;28;20259;-56
2024/01/26 11:09:19;;;;;;;2.10;1.90;;;;;;;2.88;64.79;100931.16;5070902;28;20217;-56
2024/01/26 11:11:51;;;;;;;3.00;1.97;;;;;;;2.89;65.50;100935.44;5060548;28;20292;-58
2024/01/26 11:14:28;;;;;;;1.43;1.33;;;;;;;2.99;64.90;100948.47;5065967;28;20208;-57
2024/01/26 11:17:08;;;;;;;3.43;2.30;;;;;;;3.04;65.34;100936.75;5071340;28;20551;-59
2024/01/26 11:19:37;;;;;;;2.20;1.70;;;;;;;3.11;65.08;100936.16;5066621;28;20279;-58
2024/01/26 11:22:06;;;;;;;1.97;1.80;;;;;;;3.12;64.43;100936.19;5070619;28;20255;-56
2024/01/26 11:24:35;;;;;;;2.40;1.67;;;;;;;3.13;64.22;100929.44;5069244;28;20251;-57
2024/01/26 11:27:05;;;;;;;2.20;1.90;;;;;;;3.14;64.75;100939.66;5070423;28;20198;-56
2024/01/26 11:29:36;;;;;;;4.27;3.23;;;;;;;3.18;64.41;100932.97;5058468;28;20590;-58
2024/01/26 11:32:15;;;;;;;2.63;1.87;;;;;;;3.18;64.02;100929.56;5066206;28;20577;-57
2024/01/26 11:34:44;;;;;;;2.70;1.90;;;;;;;3.13;63.65;100932.84;5053952;28;20221;-57
2024/01/26 11:37:13;;;;;;;2.40;1.90;;;;;;;3.12;63.67;100920.03;5069891;28;20678;-56
2024/01/26 11:39:42;;;;;;;2.10;1.90;;;;;;;3.00;63.65;100924.75;5058563;28;20229;-56